sensor_id;sensor_type;location;lat;lon;timestamp;pressure;altitude;pressure_sealevel;temperature
20058;BMP180;10189;49.546;7.906;2022-09-13T00:02:05;97725.00;;;14.00
20058;BMP180;10189;49.546;7.906;2022-09-13T00:04:31;97718.00;;;14.00
20058;BMP180;10189;49.546;7.906;2022-09-13T00:06:57;97714.00;;;14.00
20058;BMP180;10189;49.546;7.906;2022-09-13T00:09:22;97703.00;;;14.00
20058;BMP180;10189;49.546;7.906;2022-09-13T00:11:48;97706.00;;;14.00
20058;BMP180;10189;49.546;7.906;2022-09-13T00:14:14;97701.00;;;14.00
20058;BMP180;10189;49.546;7.906;2022-09-13T00:16:40;97704.00;;;13.90
20058;BMP180;10189;49.546;7.906;2022-09-13T00:19:06;97698.00;;;13.90
20058;BMP180;10189;49.546;7.906;2022-09-13T00:21:31;97697.00;;;13.90
20058;BMP180;10189;49.546;7.906;2022-09-13T00:23:57;97690.00;;;13.90
20058;BMP180;10189;49.546;7.906;2022-09-13T00:26:26;97697.00;;;14.00
20058;BMP180;10189;49.546;7.906;2022-09-13T00:28:55;97684.00;;;13.90
20058;BMP180;10189;49.546;7.906;2022-09-13T00:31:24;97684.00;;;13.90
20058;BMP180;10189;49.546;7.906;2022-09-13T00:33:52;97696.00;;;13.90
20058;BMP180;10189;49.546;7.906;2022-09-13T00:36:17;97699.00;;;14.00
20058;BMP180;10189;49.546;7.906;2022-09-13T00:38:44;97697.00;;;14.00
20058;BMP180;10189;49.546;7.906;2022-09-13T00:41:14;97702.00;;;14.00
20058;BMP180;10189;49.546;7.906;2022-09-13T00:46:36;97693.00;;;13.90
20058;BMP180;10189;49.546;7.906;2022-09-13T00:51:48;97690.00;;;13.80
20058;BMP180;10189;49.546;7.906;2022-09-13T00:54:18;97701.00;;;13.80
20058;BMP180;10189;49.546;7.906;2022-09-13T00:56:52;97697.00;;;13.80
20058;BMP180;10189;49.546;7.906;2022-09-13T00:59:26;97698.00;;;13.80
20058;BMP180;10189;49.546;7.906;2022-09-13T01:01:55;97695.00;;;13.80
20058;BMP180;10189;49.546;7.906;2022-09-13T01:04:43;97693.00;;;13.70
20058;BMP180;10189;49.546;7.906;2022-09-13T01:07:14;97682.00;;;13.70
20058;BMP180;10189;49.546;7.906;2022-09-13T01:09:47;97696.00;;;13.70
20058;BMP180;10189;49.546;7.906;2022-09-13T01:12:39;97702.00;;;13.70
20058;BMP180;10189;49.546;7.906;2022-09-13T01:15:09;97707.00;;;13.70
20058;BMP180;10189;49.546;7.906;2022-09-13T01:17:36;97720.00;;;13.70
20058;BMP180;10189;49.546;7.906;2022-09-13T01:20:05;97720.00;;;13.70
20058;BMP180;10189;49.546;7.906;2022-09-13T01:31:23;97685.00;;;13.60
20058;BMP180;10189;49.546;7.906;2022-09-13T01:34:17;97686.00;;;13.50
20058;BMP180;10189;49.546;7.906;2022-09-13T01:53:54;97730.00;;;13.70
20058;BMP180;10189;49.546;7.906;2022-09-13T01:56:37;97744.00;;;13.60
20058;BMP180;10189;49.546;7.906;2022-09-13T01:59:28;97728.00;;;13.50
20058;BMP180;10189;49.546;7.906;2022-09-13T02:02:32;97717.00;;;13.40
20058;BMP180;10189;49.546;7.906;2022-09-13T02:05:30;97718.00;;;13.40
20058;BMP180;10189;49.546;7.906;2022-09-13T02:08:31;97721.00;;;13.40
20058;BMP180;10189;49.546;7.906;2022-09-13T02:11:08;97717.00;;;13.30
20058;BMP180;10189;49.546;7.906;2022-09-13T02:13:40;97722.00;;;13.30
20058;BMP180;10189;49.546;7.906;2022-09-13T02:16:24;97725.00;;;13.30
20058;BMP180;10189;49.546;7.906;2022-09-13T02:18:56;97725.00;;;13.30
20058;BMP180;10189;49.546;7.906;2022-09-13T02:21:34;97713.00;;;13.40
20058;BMP180;10189;49.546;7.906;2022-09-13T02:24:17;97708.00;;;13.40
20058;BMP180;10189;49.546;7.906;2022-09-13T02:26:46;97713.00;;;13.40
20058;BMP180;10189;49.546;7.906;2022-09-13T02:29:18;97707.00;;;13.50
20058;BMP180;10189;49.546;7.906;2022-09-13T02:34:24;97720.00;;;13.70
20058;BMP180;10189;49.546;7.906;2022-09-13T02:36:54;97726.00;;;13.70
20058;BMP180;10189;49.546;7.906;2022-09-13T02:39:28;97726.00;;;13.80
20058;BMP180;10189;49.546;7.906;2022-09-13T02:42:13;97712.00;;;13.80
20058;BMP180;10189;49.546;7.906;2022-09-13T02:44:48;97711.00;;;13.80
20058;BMP180;10189;49.546;7.906;2022-09-13T02:47:41;97704.00;;;13.80
20058;BMP180;10189;49.546;7.906;2022-09-13T02:50:46;97689.00;;;13.90
20058;BMP180;10189;49.546;7.906;2022-09-13T02:53:44;97682.00;;;14.00
20058;BMP180;10189;49.546;7.906;2022-09-13T02:56:38;97669.00;;;14.10
20058;BMP180;10189;49.546;7.906;2022-09-13T02:59:16;97675.00;;;14.10
20058;BMP180;10189;49.546;7.906;2022-09-13T03:01:51;97669.00;;;14.20
20058;BMP180;10189;49.546;7.906;2022-09-13T03:04:18;97668.00;;;14.30
20058;BMP180;10189;49.546;7.906;2022-09-13T03:06:43;97667.00;;;14.30
20058;BMP180;10189;49.546;7.906;2022-09-13T03:09:10;97673.00;;;14.40
20058;BMP180;10189;49.546;7.906;2022-09-13T03:14:48;97681.00;;;14.50
20058;BMP180;10189;49.546;7.906;2022-09-13T03:17:27;97688.00;;;14.50
20058;BMP180;10189;49.546;7.906;2022-09-13T03:20:10;97701.00;;;14.60
20058;BMP180;10189;49.546;7.906;2022-09-13T03:23:16;97688.00;;;14.40
20058;BMP180;10189;49.546;7.906;2022-09-13T03:26:25;97674.00;;;14.30
20058;BMP180;10189;49.546;7.906;2022-09-13T03:29:19;97665.00;;;14.30
20058;BMP180;10189;49.546;7.906;2022-09-13T03:32:23;97668.00;;;14.30
20058;BMP180;10189;49.546;7.906;2022-09-13T03:38:14;97647.00;;;14.20
20058;BMP180;10189;49.546;7.906;2022-09-13T03:40:50;97645.00;;;14.20
20058;BMP180;10189;49.546;7.906;2022-09-13T03:43:36;97642.00;;;14.20
20058;BMP180;10189;49.546;7.906;2022-09-13T03:46:10;97647.00;;;14.20
20058;BMP180;10189;49.546;7.906;2022-09-13T03:48:39;97646.00;;;14.20
20058;BMP180;10189;49.546;7.906;2022-09-13T03:51:07;97643.00;;;14.20
20058;BMP180;10189;49.546;7.906;2022-09-13T03:53:41;97647.00;;;14.20
20058;BMP180;10189;49.546;7.906;2022-09-13T03:56:14;97642.00;;;14.20
20058;BMP180;10189;49.546;7.906;2022-09-13T03:58:40;97644.00;;;14.20
20058;BMP180;10189;49.546;7.906;2022-09-13T04:01:06;97643.00;;;14.20
20058;BMP180;10189;49.546;7.906;2022-09-13T04:03:38;97641.00;;;14.20
20058;BMP180;10189;49.546;7.906;2022-09-13T04:06:05;97642.00;;;14.20
20058;BMP180;10189;49.546;7.906;2022-09-13T04:08:32;97640.00;;;14.30
20058;BMP180;10189;49.546;7.906;2022-09-13T04:10:58;97635.00;;;14.30
20058;BMP180;10189;49.546;7.906;2022-09-13T04:13:25;97637.00;;;14.30
20058;BMP180;10189;49.546;7.906;2022-09-13T04:15:51;97618.00;;;14.30
20058;BMP180;10189;49.546;7.906;2022-09-13T04:18:17;97638.00;;;14.40
20058;BMP180;10189;49.546;7.906;2022-09-13T04:20:43;97637.00;;;14.40
20058;BMP180;10189;49.546;7.906;2022-09-13T04:23:09;97633.00;;;14.40
20058;BMP180;10189;49.546;7.906;2022-09-13T04:25:38;97635.00;;;14.40
20058;BMP180;10189;49.546;7.906;2022-09-13T04:28:05;97640.00;;;14.40
20058;BMP180;10189;49.546;7.906;2022-09-13T04:30:31;97645.00;;;14.50
20058;BMP180;10189;49.546;7.906;2022-09-13T04:32:57;97647.00;;;14.50
20058;BMP180;10189;49.546;7.906;2022-09-13T04:35:25;97664.00;;;14.50
20058;BMP180;10189;49.546;7.906;2022-09-13T04:37:55;97664.00;;;14.50
20058;BMP180;10189;49.546;7.906;2022-09-13T04:40:23;97667.00;;;14.50
20058;BMP180;10189;49.546;7.906;2022-09-13T04:42:49;97673.00;;;14.50
20058;BMP180;10189;49.546;7.906;2022-09-13T04:45:15;97665.00;;;14.50
20058;BMP180;10189;49.546;7.906;2022-09-13T04:47:41;97663.00;;;14.50
20058;BMP180;10189;49.546;7.906;2022-09-13T04:50:07;97674.00;;;14.50
20058;BMP180;10189;49.546;7.906;2022-09-13T04:52:34;97674.00;;;14.50
20058;BMP180;10189;49.546;7.906;2022-09-13T04:55:00;97675.00;;;14.40
20058;BMP180;10189;49.546;7.906;2022-09-13T04:57:28;97673.00;;;14.40
20058;BMP180;10189;49.546;7.906;2022-09-13T04:59:54;97664.00;;;14.40
20058;BMP180;10189;49.546;7.906;2022-09-13T05:02:19;97664.00;;;14.50
20058;BMP180;10189;49.546;7.906;2022-09-13T05:04:45;97671.00;;;14.50
20058;BMP180;10189;49.546;7.906;2022-09-13T05:07:11;97672.00;;;14.50
20058;BMP180;10189;49.546;7.906;2022-09-13T05:09:37;97676.00;;;14.50
20058;BMP180;10189;49.546;7.906;2022-09-13T05:12:03;97669.00;;;14.60
20058;BMP180;10189;49.546;7.906;2022-09-13T05:14:29;97652.00;;;14.70
20058;BMP180;10189;49.546;7.906;2022-09-13T05:16:55;97648.00;;;14.70
20058;BMP180;10189;49.546;7.906;2022-09-13T05:19:21;97639.00;;;14.80
20058;BMP180;10189;49.546;7.906;2022-09-13T05:21:47;97644.00;;;14.80
20058;BMP180;10189;49.546;7.906;2022-09-13T05:24:13;97670.00;;;14.80
20058;BMP180;10189;49.546;7.906;2022-09-13T05:26:39;97681.00;;;14.70
20058;BMP180;10189;49.546;7.906;2022-09-13T05:29:05;97679.00;;;14.60
20058;BMP180;10189;49.546;7.906;2022-09-13T05:31:37;97679.00;;;14.70
20058;BMP180;10189;49.546;7.906;2022-09-13T05:34:08;97692.00;;;14.80
20058;BMP180;10189;49.546;7.906;2022-09-13T05:36:37;97680.00;;;14.80
20058;BMP180;10189;49.546;7.906;2022-09-13T05:39:11;97675.00;;;14.80
20058;BMP180;10189;49.546;7.906;2022-09-13T05:41:37;97678.00;;;14.90
20058;BMP180;10189;49.546;7.906;2022-09-13T05:44:03;97688.00;;;15.00
20058;BMP180;10189;49.546;7.906;2022-09-13T05:46:29;97691.00;;;15.00
20058;BMP180;10189;49.546;7.906;2022-09-13T05:48:57;97666.00;;;15.10
20058;BMP180;10189;49.546;7.906;2022-09-13T05:51:25;97673.00;;;15.20
20058;BMP180;10189;49.546;7.906;2022-09-13T05:53:52;97660.00;;;15.30
20058;BMP180;10189;49.546;7.906;2022-09-13T05:56:25;97652.00;;;15.30
20058;BMP180;10189;49.546;7.906;2022-09-13T05:58:52;97653.00;;;15.50
20058;BMP180;10189;49.546;7.906;2022-09-13T06:01:23;97653.00;;;15.60
20058;BMP180;10189;49.546;7.906;2022-09-13T06:03:54;97659.00;;;15.50
20058;BMP180;10189;49.546;7.906;2022-09-13T06:06:22;97673.00;;;15.50
20058;BMP180;10189;49.546;7.906;2022-09-13T06:08:53;97676.00;;;15.60
20058;BMP180;10189;49.546;7.906;2022-09-13T06:11:19;97663.00;;;15.70
20058;BMP180;10189;49.546;7.906;2022-09-13T06:13:45;97650.00;;;15.80
20058;BMP180;10189;49.546;7.906;2022-09-13T06:16:12;97654.00;;;15.90
20058;BMP180;10189;49.546;7.906;2022-09-13T06:18:39;97638.00;;;15.80
20058;BMP180;10189;49.546;7.906;2022-09-13T06:21:21;97641.00;;;16.00
20058;BMP180;10189;49.546;7.906;2022-09-13T06:23:50;97641.00;;;16.00
20058;BMP180;10189;49.546;7.906;2022-09-13T06:26:19;97639.00;;;16.10
20058;BMP180;10189;49.546;7.906;2022-09-13T06:28:54;97639.00;;;16.30
20058;BMP180;10189;49.546;7.906;2022-09-13T06:31:24;97650.00;;;16.40
20058;BMP180;10189;49.546;7.906;2022-09-13T06:33:57;97651.00;;;16.60
20058;BMP180;10189;49.546;7.906;2022-09-13T06:36:23;97652.00;;;16.70
20058;BMP180;10189;49.546;7.906;2022-09-13T06:38:49;97650.00;;;16.80
20058;BMP180;10189;49.546;7.906;2022-09-13T06:41:21;97653.00;;;16.90
20058;BMP180;10189;49.546;7.906;2022-09-13T06:43:57;97657.00;;;16.90
20058;BMP180;10189;49.546;7.906;2022-09-13T06:46:25;97651.00;;;16.90
20058;BMP180;10189;49.546;7.906;2022-09-13T06:48:51;97642.00;;;16.90
20058;BMP180;10189;49.546;7.906;2022-09-13T06:51:22;97648.00;;;16.90
20058;BMP180;10189;49.546;7.906;2022-09-13T06:53:50;97652.00;;;17.00
20058;BMP180;10189;49.546;7.906;2022-09-13T06:56:38;97651.00;;;17.00
20058;BMP180;10189;49.546;7.906;2022-09-13T06:59:08;97660.00;;;17.20
20058;BMP180;10189;49.546;7.906;2022-09-13T07:01:38;97653.00;;;17.40
20058;BMP180;10189;49.546;7.906;2022-09-13T07:04:11;97664.00;;;17.60
20058;BMP180;10189;49.546;7.906;2022-09-13T07:06:44;97661.00;;;17.50
20058;BMP180;10189;49.546;7.906;2022-09-13T07:09:20;97664.00;;;18.00
20058;BMP180;10189;49.546;7.906;2022-09-13T07:11:49;97653.00;;;18.20
20058;BMP180;10189;49.546;7.906;2022-09-13T07:14:18;97659.00;;;18.50
20058;BMP180;10189;49.546;7.906;2022-09-13T07:16:45;97644.00;;;18.80
20058;BMP180;10189;49.546;7.906;2022-09-13T07:19:19;97637.00;;;19.00
20058;BMP180;10189;49.546;7.906;2022-09-13T07:21:45;97637.00;;;19.20
20058;BMP180;10189;49.546;7.906;2022-09-13T07:24:11;97618.00;;;19.30
20058;BMP180;10189;49.546;7.906;2022-09-13T07:26:38;97610.00;;;19.50
20058;BMP180;10189;49.546;7.906;2022-09-13T07:29:07;97611.00;;;19.60
20058;BMP180;10189;49.546;7.906;2022-09-13T07:31:43;97612.00;;;19.50
20058;BMP180;10189;49.546;7.906;2022-09-13T07:34:21;97617.00;;;19.50
20058;BMP180;10189;49.546;7.906;2022-09-13T07:36:48;97627.00;;;19.50
20058;BMP180;10189;49.546;7.906;2022-09-13T07:39:15;97631.00;;;19.60
20058;BMP180;10189;49.546;7.906;2022-09-13T07:41:42;97646.00;;;19.70
20058;BMP180;10189;49.546;7.906;2022-09-13T07:44:10;97646.00;;;19.90
20058;BMP180;10189;49.546;7.906;2022-09-13T07:46:37;97632.00;;;20.10
20058;BMP180;10189;49.546;7.906;2022-09-13T07:49:05;97632.00;;;20.30
20058;BMP180;10189;49.546;7.906;2022-09-13T07:51:34;97631.00;;;20.40
20058;BMP180;10189;49.546;7.906;2022-09-13T07:54:05;97621.00;;;20.50
20058;BMP180;10189;49.546;7.906;2022-09-13T07:56:35;97616.00;;;20.40
20058;BMP180;10189;49.546;7.906;2022-09-13T07:59:04;97628.00;;;20.50
20058;BMP180;10189;49.546;7.906;2022-09-13T08:01:43;97617.00;;;20.70
20058;BMP180;10189;49.546;7.906;2022-09-13T08:04:19;97613.00;;;21.00
20058;BMP180;10189;49.546;7.906;2022-09-13T08:06:45;97610.00;;;21.40
20058;BMP180;10189;49.546;7.906;2022-09-13T08:09:13;97616.00;;;21.50
20058;BMP180;10189;49.546;7.906;2022-09-13T08:11:43;97618.00;;;21.30
20058;BMP180;10189;49.546;7.906;2022-09-13T08:14:12;97619.00;;;21.20
20058;BMP180;10189;49.546;7.906;2022-09-13T08:16:39;97636.00;;;21.30
20058;BMP180;10189;49.546;7.906;2022-09-13T08:19:06;97627.00;;;21.60
20058;BMP180;10189;49.546;7.906;2022-09-13T08:21:36;97629.00;;;21.50
20058;BMP180;10189;49.546;7.906;2022-09-13T08:24:04;97642.00;;;21.40
20058;BMP180;10189;49.546;7.906;2022-09-13T08:26:32;97651.00;;;21.10
20058;BMP180;10189;49.546;7.906;2022-09-13T08:29:03;97655.00;;;21.10
20058;BMP180;10189;49.546;7.906;2022-09-13T08:31:29;97661.00;;;21.30
20058;BMP180;10189;49.546;7.906;2022-09-13T08:33:56;97667.00;;;21.40
20058;BMP180;10189;49.546;7.906;2022-09-13T08:36:24;97659.00;;;21.50
20058;BMP180;10189;49.546;7.906;2022-09-13T08:38:54;97661.00;;;21.60
20058;BMP180;10189;49.546;7.906;2022-09-13T08:41:24;97655.00;;;21.70
20058;BMP180;10189;49.546;7.906;2022-09-13T08:44:04;97654.00;;;21.70
20058;BMP180;10189;49.546;7.906;2022-09-13T08:46:39;97644.00;;;21.50
20058;BMP180;10189;49.546;7.906;2022-09-13T08:49:17;97642.00;;;21.70
20058;BMP180;10189;49.546;7.906;2022-09-13T08:51:53;97626.00;;;22.10
20058;BMP180;10189;49.546;7.906;2022-09-13T08:54:20;97617.00;;;22.10
20058;BMP180;10189;49.546;7.906;2022-09-13T08:57:04;97612.00;;;22.20
20058;BMP180;10189;49.546;7.906;2022-09-13T09:05:48;97624.00;;;23.30
20058;BMP180;10189;49.546;7.906;2022-09-13T09:08:29;97628.00;;;23.70
20058;BMP180;10189;49.546;7.906;2022-09-13T09:10:58;97639.00;;;24.10
20058;BMP180;10189;49.546;7.906;2022-09-13T09:13:36;97646.00;;;24.40
20058;BMP180;10189;49.546;7.906;2022-09-13T09:19:42;97655.00;;;24.50
20058;BMP180;10189;49.546;7.906;2022-09-13T09:22:19;97655.00;;;24.40
20058;BMP180;10189;49.546;7.906;2022-09-13T09:25:05;97661.00;;;24.40
20058;BMP180;10189;49.546;7.906;2022-09-13T09:27:31;97661.00;;;24.70
20058;BMP180;10189;49.546;7.906;2022-09-13T09:29:59;97666.00;;;25.10
20058;BMP180;10189;49.546;7.906;2022-09-13T09:33:09;97660.00;;;25.30
20058;BMP180;10189;49.546;7.906;2022-09-13T09:36:20;97655.00;;;25.40
20058;BMP180;10189;49.546;7.906;2022-09-13T09:38:42;97661.00;;;25.10
20058;BMP180;10189;49.546;7.906;2022-09-13T09:41:38;97662.00;;;25.20
20058;BMP180;10189;49.546;7.906;2022-09-13T09:44:22;97653.00;;;25.00
20058;BMP180;10189;49.546;7.906;2022-09-13T09:47:02;97653.00;;;25.10
20058;BMP180;10189;49.546;7.906;2022-09-13T09:49:50;97625.00;;;25.00
20058;BMP180;10189;49.546;7.906;2022-09-13T09:52:52;97621.00;;;25.00
20058;BMP180;10189;49.546;7.906;2022-09-13T09:55:48;97633.00;;;25.00
20058;BMP180;10189;49.546;7.906;2022-09-13T09:58:16;97645.00;;;25.00
20058;BMP180;10189;49.546;7.906;2022-09-13T10:00:53;97646.00;;;25.40
20058;BMP180;10189;49.546;7.906;2022-09-13T10:03:24;97660.00;;;25.70
20058;BMP180;10189;49.546;7.906;2022-09-13T10:06:07;97674.00;;;26.00
20058;BMP180;10189;49.546;7.906;2022-09-13T10:08:37;97672.00;;;26.20
20058;BMP180;10189;49.546;7.906;2022-09-13T10:11:05;97679.00;;;26.00
20058;BMP180;10189;49.546;7.906;2022-09-13T10:13:32;97679.00;;;26.20
20058;BMP180;10189;49.546;7.906;2022-09-13T10:16:06;97685.00;;;26.30
20058;BMP180;10189;49.546;7.906;2022-09-13T10:18:47;97682.00;;;26.50
20058;BMP180;10189;49.546;7.906;2022-09-13T10:21:23;97675.00;;;26.70
20058;BMP180;10189;49.546;7.906;2022-09-13T10:23:50;97677.00;;;26.70
20058;BMP180;10189;49.546;7.906;2022-09-13T10:26:21;97674.00;;;26.00
20058;BMP180;10189;49.546;7.906;2022-09-13T10:28:59;97669.00;;;26.20
20058;BMP180;10189;49.546;7.906;2022-09-13T10:31:33;97671.00;;;26.10
20058;BMP180;10189;49.546;7.906;2022-09-13T10:34:11;97676.00;;;25.60
20058;BMP180;10189;49.546;7.906;2022-09-13T10:39:21;97688.00;;;25.70
20058;BMP180;10189;49.546;7.906;2022-09-13T10:42:03;97697.00;;;25.90
20058;BMP180;10189;49.546;7.906;2022-09-13T10:44:49;97681.00;;;25.60
20058;BMP180;10189;49.546;7.906;2022-09-13T10:47:32;97671.00;;;26.00
20058;BMP180;10189;49.546;7.906;2022-09-13T10:50:24;97678.00;;;25.80
20058;BMP180;10189;49.546;7.906;2022-09-13T10:52:53;97677.00;;;26.20
20058;BMP180;10189;49.546;7.906;2022-09-13T10:58:13;97676.00;;;26.30
20058;BMP180;10189;49.546;7.906;2022-09-13T11:01:16;97661.00;;;26.40
20058;BMP180;10189;49.546;7.906;2022-09-13T11:09:35;97653.00;;;26.40
20058;BMP180;10189;49.546;7.906;2022-09-13T11:15:07;97649.00;;;26.00
20058;BMP180;10189;49.546;7.906;2022-09-13T11:23:26;97622.00;;;25.70
20058;BMP180;10189;49.546;7.906;2022-09-13T11:31:56;97636.00;;;25.80
20058;BMP180;10189;49.546;7.906;2022-09-13T11:40:48;97630.00;;;25.60
20058;BMP180;10189;49.546;7.906;2022-09-13T11:43:44;97633.00;;;25.50
20058;BMP180;10189;49.546;7.906;2022-09-13T11:46:57;97618.00;;;25.50
20058;BMP180;10189;49.546;7.906;2022-09-13T11:55:32;97604.00;;;25.20
20058;BMP180;10189;49.546;7.906;2022-09-13T11:58:15;97609.00;;;25.20
20058;BMP180;10189;49.546;7.906;2022-09-13T12:00:52;97607.00;;;25.10
20058;BMP180;10189;49.546;7.906;2022-09-13T12:03:30;97604.00;;;25.10
20058;BMP180;10189;49.546;7.906;2022-09-13T12:09:09;97606.00;;;25.10
20058;BMP180;10189;49.546;7.906;2022-09-13T12:11:42;97591.00;;;25.20
20058;BMP180;10189;49.546;7.906;2022-09-13T12:14:22;97591.00;;;25.40
20058;BMP180;10189;49.546;7.906;2022-09-13T12:16:57;97591.00;;;25.30
20058;BMP180;10189;49.546;7.906;2022-09-13T12:19:44;97588.00;;;25.30
20058;BMP180;10189;49.546;7.906;2022-09-13T12:22:12;97577.00;;;25.20
20058;BMP180;10189;49.546;7.906;2022-09-13T12:24:50;97570.00;;;25.30
20058;BMP180;10189;49.546;7.906;2022-09-13T12:30:17;97563.00;;;25.80
20058;BMP180;10189;49.546;7.906;2022-09-13T12:32:46;97564.00;;;26.00
20058;BMP180;10189;49.546;7.906;2022-09-13T12:35:25;97569.00;;;26.10
20058;BMP180;10189;49.546;7.906;2022-09-13T12:41:20;97560.00;;;27.10
20058;BMP180;10189;49.546;7.906;2022-09-13T12:52:39;97550.00;;;28.10
20058;BMP180;10189;49.546;7.906;2022-09-13T13:00:43;97537.00;;;27.60
20058;BMP180;10189;49.546;7.906;2022-09-13T13:03:12;97545.00;;;27.00
20058;BMP180;10189;49.546;7.906;2022-09-13T13:06:23;97545.00;;;27.20
20058;BMP180;10189;49.546;7.906;2022-09-13T13:08:29;97541.00;;;27.00
20058;BMP180;10189;49.546;7.906;2022-09-13T13:11:12;97539.00;;;27.30
20058;BMP180;10189;49.546;7.906;2022-09-13T13:16:26;97538.00;;;27.60
20058;BMP180;10189;49.546;7.906;2022-09-13T13:18:57;97539.00;;;27.80
20058;BMP180;10189;49.546;7.906;2022-09-13T13:21:39;97537.00;;;28.00
20058;BMP180;10189;49.546;7.906;2022-09-13T13:26:57;97539.00;;;28.30
20058;BMP180;10189;49.546;7.906;2022-09-13T13:29:31;97540.00;;;28.40
20058;BMP180;10189;49.546;7.906;2022-09-13T13:34:43;97534.00;;;28.00
20058;BMP180;10189;49.546;7.906;2022-09-13T13:39:44;97533.00;;;27.80
20058;BMP180;10189;49.546;7.906;2022-09-13T13:42:29;97524.00;;;27.70
20058;BMP180;10189;49.546;7.906;2022-09-13T13:45:26;97526.00;;;27.70
20058;BMP180;10189;49.546;7.906;2022-09-13T13:48:10;97520.00;;;27.50
20058;BMP180;10189;49.546;7.906;2022-09-13T13:51:18;97528.00;;;27.20
20058;BMP180;10189;49.546;7.906;2022-09-13T13:53:50;97528.00;;;26.70
20058;BMP180;10189;49.546;7.906;2022-09-13T13:56:46;97524.00;;;26.60
20058;BMP180;10189;49.546;7.906;2022-09-13T13:59:22;97527.00;;;26.40
20058;BMP180;10189;49.546;7.906;2022-09-13T14:01:55;97515.00;;;26.30
20058;BMP180;10189;49.546;7.906;2022-09-13T14:05:08;97513.00;;;26.20
20058;BMP180;10189;49.546;7.906;2022-09-13T14:13:43;97504.00;;;26.40
20058;BMP180;10189;49.546;7.906;2022-09-13T14:16:53;97498.00;;;26.50
20058;BMP180;10189;49.546;7.906;2022-09-13T14:19:33;97494.00;;;26.70
20058;BMP180;10189;49.546;7.906;2022-09-13T14:22:25;97495.00;;;26.70
20058;BMP180;10189;49.546;7.906;2022-09-13T14:24:56;97489.00;;;26.80
20058;BMP180;10189;49.546;7.906;2022-09-13T14:27:26;97483.00;;;26.80
20058;BMP180;10189;49.546;7.906;2022-09-13T14:29:58;97484.00;;;26.50
20058;BMP180;10189;49.546;7.906;2022-09-13T14:32:29;97479.00;;;26.30
20058;BMP180;10189;49.546;7.906;2022-09-13T14:35:03;97474.00;;;25.90
20058;BMP180;10189;49.546;7.906;2022-09-13T14:37:37;97477.00;;;25.70
20058;BMP180;10189;49.546;7.906;2022-09-13T14:40:24;97478.00;;;25.90
20058;BMP180;10189;49.546;7.906;2022-09-13T14:42:54;97469.00;;;26.10
20058;BMP180;10189;49.546;7.906;2022-09-13T14:45:41;97466.00;;;26.20
20058;BMP180;10189;49.546;7.906;2022-09-13T14:48:27;97461.00;;;26.30
20058;BMP180;10189;49.546;7.906;2022-09-13T14:51:21;97447.00;;;26.60
20058;BMP180;10189;49.546;7.906;2022-09-13T14:53:56;97444.00;;;26.70
20058;BMP180;10189;49.546;7.906;2022-09-13T14:56:40;97445.00;;;26.70
20058;BMP180;10189;49.546;7.906;2022-09-13T15:01:54;97446.00;;;26.40
20058;BMP180;10189;49.546;7.906;2022-09-13T15:04:24;97448.00;;;26.30
20058;BMP180;10189;49.546;7.906;2022-09-13T15:07:36;97427.00;;;26.60
20058;BMP180;10189;49.546;7.906;2022-09-13T15:12:53;97418.00;;;26.10
20058;BMP180;10189;49.546;7.906;2022-09-13T15:15:40;97428.00;;;26.00
20058;BMP180;10189;49.546;7.906;2022-09-13T15:26:22;97414.00;;;25.90
20058;BMP180;10189;49.546;7.906;2022-09-13T15:28:57;97410.00;;;25.90
20058;BMP180;10189;49.546;7.906;2022-09-13T15:31:29;97421.00;;;25.90
20058;BMP180;10189;49.546;7.906;2022-09-13T15:34:22;97417.00;;;25.70
20058;BMP180;10189;49.546;7.906;2022-09-13T15:37:08;97411.00;;;25.50
20058;BMP180;10189;49.546;7.906;2022-09-13T15:39:49;97406.00;;;25.50
20058;BMP180;10189;49.546;7.906;2022-09-13T15:42:26;97408.00;;;25.50
20058;BMP180;10189;49.546;7.906;2022-09-13T15:44:51;97414.00;;;25.70
20058;BMP180;10189;49.546;7.906;2022-09-13T15:47:18;97411.00;;;25.90
20058;BMP180;10189;49.546;7.906;2022-09-13T15:49:49;97414.00;;;25.50
20058;BMP180;10189;49.546;7.906;2022-09-13T15:52:18;97412.00;;;25.40
20058;BMP180;10189;49.546;7.906;2022-09-13T15:54:48;97422.00;;;25.50
20058;BMP180;10189;49.546;7.906;2022-09-13T15:57:23;97424.00;;;25.50
20058;BMP180;10189;49.546;7.906;2022-09-13T15:59:50;97426.00;;;25.40
20058;BMP180;10189;49.546;7.906;2022-09-13T16:02:23;97421.00;;;25.50
20058;BMP180;10189;49.546;7.906;2022-09-13T16:04:50;97418.00;;;25.50
20058;BMP180;10189;49.546;7.906;2022-09-13T16:07:17;97422.00;;;25.40
20058;BMP180;10189;49.546;7.906;2022-09-13T16:09:44;97423.00;;;25.40
20058;BMP180;10189;49.546;7.906;2022-09-13T16:12:11;97415.00;;;25.10
20058;BMP180;10189;49.546;7.906;2022-09-13T16:14:36;97416.00;;;25.00
20058;BMP180;10189;49.546;7.906;2022-09-13T16:17:13;97416.00;;;24.70
20058;BMP180;10189;49.546;7.906;2022-09-13T16:19:42;97410.00;;;24.60
20058;BMP180;10189;49.546;7.906;2022-09-13T16:22:08;97419.00;;;24.60
20058;BMP180;10189;49.546;7.906;2022-09-13T16:24:34;97419.00;;;24.50
20058;BMP180;10189;49.546;7.906;2022-09-13T16:27:00;97426.00;;;24.50
20058;BMP180;10189;49.546;7.906;2022-09-13T16:29:26;97417.00;;;24.50
20058;BMP180;10189;49.546;7.906;2022-09-13T16:31:52;97431.00;;;24.50
20058;BMP180;10189;49.546;7.906;2022-09-13T16:34:18;97424.00;;;24.40
20058;BMP180;10189;49.546;7.906;2022-09-13T16:36:45;97417.00;;;24.30
20058;BMP180;10189;49.546;7.906;2022-09-13T16:39:10;97424.00;;;24.30
20058;BMP180;10189;49.546;7.906;2022-09-13T16:41:38;97429.00;;;24.20
20058;BMP180;10189;49.546;7.906;2022-09-13T16:44:05;97429.00;;;24.20
20058;BMP180;10189;49.546;7.906;2022-09-13T16:46:31;97416.00;;;23.90
20058;BMP180;10189;49.546;7.906;2022-09-13T16:48:58;97437.00;;;23.70
20058;BMP180;10189;49.546;7.906;2022-09-13T16:51:25;97430.00;;;23.50
20058;BMP180;10189;49.546;7.906;2022-09-13T16:53:53;97419.00;;;23.50
20058;BMP180;10189;49.546;7.906;2022-09-13T16:56:22;97424.00;;;23.40
20058;BMP180;10189;49.546;7.906;2022-09-13T16:58:50;97424.00;;;23.30
20058;BMP180;10189;49.546;7.906;2022-09-13T17:01:27;97430.00;;;23.40
20058;BMP180;10189;49.546;7.906;2022-09-13T17:03:54;97425.00;;;23.30
20058;BMP180;10189;49.546;7.906;2022-09-13T17:06:23;97423.00;;;23.30
20058;BMP180;10189;49.546;7.906;2022-09-13T17:08:53;97421.00;;;23.20
20058;BMP180;10189;49.546;7.906;2022-09-13T17:11:23;97415.00;;;23.20